Boston, MA (02101)

8:01 PM EST on January 30, 2015 (GMT -0500)
Southie | Change Station
CLOSE
Current Station
Personal Weather Station
Location: Boston, MA
Elevation: 33 ft
Nearby Weather Stations

Elev 33 ft 42.34 °N, 71.04 °W | Updated 12 seconds ago

Light Snow
Light Snow
30.2 °F
Feels Like 21 °F
N
11.0
Wind Variable Wind from WNW
Gusts 24.0 mph

Today
High -- | Low -- °F
--% Chance of Precip.
Yesterday
High -- | Low -- °F
Precip. -- in
6:59 AM 4:55 PM
Waxing Gibbous, 86% visible
Pressure 29.74 in
Visibility 7.0 miles
Clouds Few 1900 ft
Overcast 3900 ft
Windchill 21 °F
Dew Point 23 °F
Humidity 75%
Rainfall 0.04 in
Snow Depth Not available.
UV 0 out of 12
Pollen .10 out of 12
Air Quality Not available.
Flu Activity Not available.
METAR KBOS 310054Z 32016G27KT 7SM -SN FEW019 OVC039 M02/M07 A2974 RMK AO2 PK WND 32027/0050 SLP069 P0000 T10171067

More Conditions Fewer Conditions

Pressure 29.74 in
Visibility 7.0 miles
Clouds Few 1900 ft
Overcast 3900 ft
Windchill 21 °F
Dew Point 23 °F
Humidity 75%
Rainfall 0.04 in
Snow Depth Not available.
UV 0 out of 12
Pollen .10 out of 12
Air Quality Not available.
Flu Activity Not available.
METAR KBOS 310054Z 32016G27KT 7SM -SN FEW019 OVC039 M02/M07 A2974 RMK AO2 PK WND 32027/0050 SLP069 P0000 T10171067

More Conditions Fewer Conditions

10-Day Weather Forecast

Almanac

Astronomy

Jan. 30, 2015 Rise Set
Actual Time
Civil Twilight
Nautical Twilight
Astronomical Twilight
Moon
Length of Visible Light
Length of Day
Tomorrow will be .
, % of the Moon is Illuminated

Today's Extremes

State Highs State Lows

Community

WunderPhotos

Upload Photos

1,791,950 photos uploaded!

WunderBlogs® & News

Nearby

Air Quality

  Air Quality AQ Index Pollutant
Not available.

Snow Depth

Station Depth Elevation

Earthquake Activity

City Distance Mag. Time & Date
Minimum magnitude displayed is 2.5.

Coastal Water Temperatures

Place Temperature

Nearby Weather Stations